^^

New Milford Station Historical Data

 
Daily Summary for March 21, 2019 Units:  English    Metric   Both
Daily Weekly Monthly Yearly Custom
  Current: High: Low: Average:
Temperature: 41.1 °F 41.1 °F 33.7 °F 36 °F
Dew Point: 40.0 °F 40.0 °F 30.3 °F 33.1 °F
Humidity: 96% 96% 79% 89%
Wind Speed: 0.0mph 0.0mph 0.0mph 0mph
Wind Gust: 0.0mph 0.0mph - -
WindCalm - - North
Pressure: 30.12 in 30.22 in 30.12 in -
Precipitation: 0.05 in      
Historical Graphs
 
 
Tabular Data for March 21, 2019
Time Temperature Dew Point Pressure Wind Wind Speed Wind Gust Humidity Rainfall Rate (Hourly) solar
00:00 36.7 °F 30.8 °F 30.22 in Calm     79% 0.00 in WeatherDisplay:10.37 W/m2
00:05 36.6 °F 31.1 °F 30.22 in Calm     80% 0.00 in WeatherDisplay:10.37 W/m2
00:10 36.4 °F 30.8 °F 30.22 in Calm     80% 0.00 in WeatherDisplay:10.37 W/m2
00:15 36.4 °F 30.8 °F 30.21 in Calm     80% 0.00 in WeatherDisplay:10.37 W/m2
00:20 36.3 °F 31.1 °F 30.21 in Calm     81% 0.00 in WeatherDisplay:10.37 W/m2
00:25 36.3 °F 31.1 °F 30.21 in Calm     81% 0.00 in WeatherDisplay:10.37 W/m2
00:30 36.3 °F 31.0 °F 30.21 in Calm     81% 0.00 in WeatherDisplay:10.37 W/m2
00:35 36.3 °F 31.0 °F 30.21 in Calm     81% 0.00 in WeatherDisplay:10.37 W/m2
00:40 36.3 °F 31.0 °F 30.21 in Calm     81% 0.00 in WeatherDisplay:10.37 W/m2
00:45 36.2 °F 30.9 °F 30.21 in Calm     81% 0.00 in WeatherDisplay:10.37 W/m2
00:50 36.2 °F 30.9 °F 30.21 in Calm     81% 0.00 in WeatherDisplay:10.37 W/m2
00:55 36.3 °F 31.0 °F 30.21 in Calm     81% 0.00 in WeatherDisplay:10.37 W/m2
01:00 36.3 °F 31.1 °F 30.21 in Calm     81% 0.00 in WeatherDisplay:10.37 W/m2
01:05 36.3 °F 31.0 °F 30.21 in Calm     81% 0.00 in WeatherDisplay:10.37 W/m2
01:10 36.3 °F 31.0 °F 30.21 in Calm     81% 0.00 in WeatherDisplay:10.37 W/m2
01:15 36.3 °F 31.3 °F 30.21 in Calm     82% 0.00 in WeatherDisplay:10.37 W/m2
01:20 36.2 °F 30.9 °F 30.21 in Calm     81% 0.00 in WeatherDisplay:10.37 W/m2
01:25 36.0 °F 31.0 °F 30.21 in Calm     82% 0.00 in WeatherDisplay:10.37 W/m2
01:30 35.8 °F 30.8 °F 30.21 in Calm     82% 0.00 in WeatherDisplay:10.37 W/m2
01:35 35.7 °F 30.7 °F 30.20 in Calm     82% 0.00 in WeatherDisplay:10.37 W/m2
01:40 35.4 °F 30.8 °F 30.20 in Calm     83% 0.00 in WeatherDisplay:10.37 W/m2
01:45 35.2 °F 30.6 °F 30.20 in Calm     83% 0.00 in WeatherDisplay:10.37 W/m2
01:50 35.0 °F 30.4 °F 30.20 in Calm     83% 0.00 in WeatherDisplay:10.37 W/m2
01:55 34.9 °F 30.6 °F 30.20 in Calm     84% 0.00 in WeatherDisplay:10.37 W/m2
02:00 34.9 °F 30.5 °F 30.20 in Calm     84% 0.00 in WeatherDisplay:10.37 W/m2
02:05 34.8 °F 30.5 °F 30.20 in Calm     84% 0.00 in WeatherDisplay:10.37 W/m2
02:10 34.8 °F 30.5 °F 30.20 in Calm     84% 0.00 in WeatherDisplay:10.37 W/m2
02:15 34.8 °F 30.5 °F 30.20 in Calm     84% 0.00 in WeatherDisplay:10.37 W/m2
02:20 34.7 °F 30.7 °F 30.20 in Calm     85% 0.00 in WeatherDisplay:10.37 W/m2
02:25 34.7 °F 30.7 °F 30.19 in Calm     85% 0.00 in WeatherDisplay:10.37 W/m2
02:30 34.6 °F 30.6 °F 30.19 in Calm     85% 0.00 in WeatherDisplay:10.37 W/m2
02:35 34.5 °F 30.5 °F 30.19 in Calm     85% 0.00 in WeatherDisplay:10.37 W/m2
02:40 34.3 °F 30.5 °F 30.19 in Calm     86% 0.00 in WeatherDisplay:10.37 W/m2
02:45 34.2 °F 30.4 °F 30.19 in Calm     86% 0.00 in WeatherDisplay:10.37 W/m2
02:50 34.1 °F 30.4 °F 30.19 in Calm     86% 0.00 in WeatherDisplay:10.37 W/m2
02:55 34.1 °F 30.4 °F 30.19 in Calm     86% 0.00 in WeatherDisplay:10.37 W/m2
03:00 34.0 °F 30.3 °F 30.19 in Calm     86% 0.00 in WeatherDisplay:10.37 W/m2
03:05 34.0 °F 30.6 °F 30.18 in Calm     87% 0.00 in WeatherDisplay:10.37 W/m2
03:10 34.0 °F 30.6 °F 30.18 in Calm     87% 0.00 in WeatherDisplay:10.37 W/m2
03:15 34.1 °F 30.6 °F 30.18 in Calm     87% 0.00 in WeatherDisplay:10.37 W/m2
03:20 34.1 °F 30.7 °F 30.18 in Calm     87% 0.00 in WeatherDisplay:10.37 W/m2
03:25 34.1 °F 30.7 °F 30.17 in Calm     87% 0.00 in WeatherDisplay:10.37 W/m2
03:30 34.1 °F 30.7 °F 30.17 in Calm     87% 0.00 in WeatherDisplay:10.37 W/m2
03:35 34.2 °F 31.0 °F 30.17 in Calm     88% 0.00 in WeatherDisplay:10.37 W/m2
03:40 34.2 °F 31.0 °F 30.17 in Calm     88% 0.00 in WeatherDisplay:10.37 W/m2
03:45 34.3 °F 31.1 °F 30.17 in Calm     88% 0.00 in WeatherDisplay:10.37 W/m2
03:50 34.4 °F 31.3 °F 30.17 in Calm     88% 0.00 in WeatherDisplay:10.37 W/m2
03:55 34.7 °F 31.5 °F 30.17 in Calm     88% 0.00 in WeatherDisplay:10.37 W/m2
04:00 34.8 °F 31.6 °F 30.17 in Calm     88% 0.00 in WeatherDisplay:10.37 W/m2
04:05 34.9 °F 31.4 °F 30.17 in Calm     87% 0.00 in WeatherDisplay:10.37 W/m2
04:10 35.0 °F 31.5 °F 30.16 in Calm     87% 0.00 in WeatherDisplay:10.37 W/m2
04:15 35.2 °F 31.7 °F 30.16 in Calm     87% 0.00 in WeatherDisplay:10.37 W/m2
04:20 35.3 °F 31.8 °F 30.16 in Calm     87% 0.00 in WeatherDisplay:10.37 W/m2
04:25 35.4 °F 31.9 °F 30.16 in Calm     87% 0.00 in WeatherDisplay:10.37 W/m2
04:30 35.5 °F 32.0 °F 30.16 in Calm     87% 0.00 in WeatherDisplay:10.37 W/m2
04:35 35.5 °F 32.0 °F 30.15 in Calm     87% 0.00 in WeatherDisplay:10.37 W/m2
04:40 35.5 °F 32.0 °F 30.16 in Calm     87% 0.00 in WeatherDisplay:10.37 W/m2
04:45 35.3 °F 31.9 °F 30.16 in Calm     87% 0.00 in WeatherDisplay:10.37 W/m2
04:50 35.3 °F 31.8 °F 30.16 in Calm     87% 0.00 in WeatherDisplay:10.37 W/m2
04:55 35.2 °F 31.7 °F 30.16 in Calm     87% 0.00 in WeatherDisplay:10.37 W/m2
05:00 35.1 °F 31.6 °F 30.16 in Calm     87% 0.00 in WeatherDisplay:10.37 W/m2
05:05 35.0 °F 31.5 °F 30.16 in Calm     87% 0.00 in WeatherDisplay:10.37 W/m2
05:10 35.0 °F 31.5 °F 30.16 in Calm     87% 0.00 in WeatherDisplay:10.37 W/m2
05:15 34.8 °F 31.4 °F 30.16 in Calm     87% 0.00 in WeatherDisplay:10.37 W/m2
05:20 34.7 °F 31.2 °F 30.15 in Calm     87% 0.00 in WeatherDisplay:10.37 W/m2
05:25 34.4 °F 31.2 °F 30.15 in Calm     88% 0.00 in WeatherDisplay:10.37 W/m2
05:30 34.2 °F 31.0 °F 30.16 in Calm     88% 0.00 in WeatherDisplay:10.37 W/m2
05:35 33.9 °F 30.7 °F 30.16 in Calm     88% 0.00 in WeatherDisplay:10.37 W/m2
05:40 33.8 °F 30.6 °F 30.15 in Calm     88% 0.00 in WeatherDisplay:10.37 W/m2
05:45 33.7 °F 30.8 °F 30.16 in Calm     89% 0.00 in WeatherDisplay:10.37 W/m2
05:50 33.7 °F 30.8 °F 30.16 in Calm     89% 0.00 in WeatherDisplay:10.37 W/m2
05:55 33.9 °F 31.0 °F 30.16 in Calm     89% 0.00 in WeatherDisplay:10.37 W/m2
06:00 34.0 °F 31.1 °F 30.16 in Calm     89% 0.00 in WeatherDisplay:10.37 W/m2
06:05 34.2 °F 31.3 °F 30.16 in Calm     89% 0.00 in WeatherDisplay:10.37 W/m2
06:10 34.3 °F 31.4 °F 30.16 in Calm     89% 0.00 in WeatherDisplay:10.37 W/m2
06:15 34.5 °F 31.6 °F 30.16 in Calm     89% 0.00 in WeatherDisplay:10.37 W/m2
06:20 34.7 °F 31.8 °F 30.16 in Calm     89% 0.00 in WeatherDisplay:10.37 W/m2
06:25 34.8 °F 31.9 °F 30.16 in Calm     89% 0.00 in WeatherDisplay:10.37 W/m2
06:30 34.8 °F 31.9 °F 30.15 in Calm     89% 0.00 in WeatherDisplay:10.37 W/m2
06:35 34.9 °F 32.3 °F 30.16 in Calm     90% 0.00 in WeatherDisplay:10.37 W/m2
06:40 34.9 °F 32.5 °F 30.16 in Calm     91% 0.00 in WeatherDisplay:10.37 W/m2
06:45 35.0 °F 32.6 °F 30.16 in Calm     91% 0.00 in WeatherDisplay:10.37 W/m2
06:50 35.0 °F 32.9 °F 30.16 in Calm     92% 0.00 in WeatherDisplay:10.37 W/m2
06:55 34.9 °F 32.9 °F 30.16 in Calm     92% 0.01 in WeatherDisplay:10.37 W/m2
07:00 35.0 °F 33.2 °F 30.15 in Calm     93% 0.00 in WeatherDisplay:10.37 W/m2
07:05 35.1 °F 33.3 °F 30.15 in Calm     93% 0.00 in WeatherDisplay:10.37 W/m2
07:10 35.1 °F 33.3 °F 30.14 in Calm     93% 0.00 in WeatherDisplay:10.37 W/m2
07:15 35.2 °F 33.7 °F 30.14 in Calm     94% 0.00 in WeatherDisplay:10.37 W/m2
07:20 35.3 °F 33.8 °F 30.14 in Calm     94% 0.00 in WeatherDisplay:10.37 W/m2
07:25 35.4 °F 33.9 °F 30.14 in Calm     94% 0.00 in WeatherDisplay:10.37 W/m2
07:30 35.5 °F 33.9 °F 30.14 in Calm     94% 0.01 in WeatherDisplay:10.37 W/m2
07:35 35.6 °F 34.3 °F 30.14 in Calm     95% 0.00 in WeatherDisplay:10.37 W/m2
07:40 35.7 °F 34.4 °F 30.14 in Calm     95% 0.00 in WeatherDisplay:10.37 W/m2
07:45 35.8 °F 34.5 °F 30.13 in Calm     95% 0.00 in WeatherDisplay:10.37 W/m2
07:50 36.0 °F 34.7 °F 30.13 in Calm     95% 0.00 in WeatherDisplay:10.37 W/m2
07:55 36.2 °F 35.2 °F 30.13 in Calm     96% 0.00 in WeatherDisplay:10.37 W/m2
08:00 36.3 °F 35.3 °F 30.13 in Calm     96% 0.00 in WeatherDisplay:10.37 W/m2
08:05 36.5 °F 35.4 °F 30.13 in Calm     96% 0.00 in WeatherDisplay:10.37 W/m2
08:10 36.7 °F 35.7 °F 30.13 in Calm     96% 0.00 in WeatherDisplay:10.37 W/m2
08:15 37.0 °F 35.9 °F 30.12 in Calm     96% 0.00 in WeatherDisplay:10.37 W/m2
08:20 37.2 °F 36.2 °F 30.12 in Calm     96% 0.00 in WeatherDisplay:10.37 W/m2
08:25 37.4 °F 36.4 °F 30.12 in Calm     96% 0.00 in WeatherDisplay:10.37 W/m2
08:30 37.8 °F 36.8 °F 30.12 in Calm     96% 0.00 in WeatherDisplay:10.37 W/m2
08:35 38.1 °F 37.1 °F 30.12 in Calm     96% 0.00 in WeatherDisplay:10.37 W/m2
08:40 38.5 °F 37.4 °F 30.12 in Calm     96% 0.00 in WeatherDisplay:10.37 W/m2
08:45 38.8 °F 37.7 °F 30.12 in Calm     96% 0.00 in WeatherDisplay:10.37 W/m2
08:50 38.9 °F 37.8 °F 30.12 in Calm     96% 0.00 in WeatherDisplay:10.37 W/m2
08:55 39.0 °F 38.0 °F 30.12 in Calm     96% 0.00 in WeatherDisplay:10.37 W/m2
09:00 39.2 °F 38.2 °F 30.12 in Calm     96% 0.00 in WeatherDisplay:10.37 W/m2
09:05 39.2 °F 38.2 °F 30.13 in Calm     96% 0.01 in WeatherDisplay:10.37 W/m2
09:10 39.2 °F 38.2 °F 30.13 in Calm     96% 0.00 in WeatherDisplay:10.37 W/m2
09:15 39.3 °F 38.3 °F 30.13 in Calm     96% 0.01 in WeatherDisplay:10.37 W/m2
09:20 39.3 °F 38.3 °F 30.13 in Calm     96% 0.00 in WeatherDisplay:10.37 W/m2
09:25 39.4 °F 38.3 °F 30.12 in Calm     96% 0.00 in WeatherDisplay:10.37 W/m2
09:30 39.6 °F 38.5 °F 30.12 in Calm     96% 0.00 in WeatherDisplay:10.37 W/m2
09:35 39.8 °F 38.8 °F 30.12 in Calm     96% 0.00 in WeatherDisplay:10.37 W/m2
09:40 39.9 °F 38.8 °F 30.13 in Calm     96% 0.00 in WeatherDisplay:10.37 W/m2
09:45 39.7 °F 38.7 °F 30.12 in Calm     96% 0.00 in WeatherDisplay:10.37 W/m2
09:50 39.9 °F 38.8 °F 30.12 in Calm     96% 0.01 in WeatherDisplay:10.37 W/m2
09:55 40.2 °F 39.2 °F 30.12 in Calm     96% 0.00 in WeatherDisplay:10.37 W/m2
10:00 40.3 °F 39.3 °F 30.12 in Calm     96% 0.00 in WeatherDisplay:10.37 W/m2
10:05 40.6 °F 39.5 °F 30.12 in Calm     96% 0.00 in WeatherDisplay:10.37 W/m2
10:10 40.7 °F 39.6 °F 30.12 in Calm     96% 0.00 in WeatherDisplay:10.37 W/m2
10:15 40.7 °F 39.6 °F 30.12 in Calm     96% 0.00 in WeatherDisplay:10.37 W/m2
10:20 40.8 °F 39.7 °F 30.12 in Calm     96% 0.00 in WeatherDisplay:10.37 W/m2
10:25 41.1 °F 40.0 °F 30.12 in Calm     96% 0.00 in WeatherDisplay:10.37 W/m2
Compliments of Weather Underground - 1.5 mb